This is the latest recevied weather packets stored in our database for station/object SP1BMW-13. If no packets are shown the sender has not sent any weather packets the latest 10 day(s).
| Time | Temp. | Humidity | Pressure | Rain* | Wind** | Luminosity | Snow |
|---|---|---|---|---|---|---|---|
| 1778144274 | 11.67° C | 67% | 1013.3 hPa | 0 mm | 1.34 m/s, 110° | 664 W/m² | - |
| 1778144214 | 11.67° C | 67% | 1013.3 hPa | 0 mm | 0 m/s | 645 W/m² | - |
| 1778144154 | 11.67° C | 67% | 1013.1 hPa | 0 mm | 0.89 m/s, 355° | 623 W/m² | - |
| 1778144094 | 11.67° C | 65% | 1013.2 hPa | 0 mm | 0.89 m/s, 225° | 314 W/m² | - |
| 1778144034 | 11.67° C | 64% | 1013.1 hPa | 0 mm | 1.34 m/s, 332° | 643 W/m² | - |
| 1778143914 | 11.67° C | 66% | 1013.1 hPa | 0 mm | 1.79 m/s, 40° | 657 W/m² | - |
| 1778143854 | 11.67° C | 66% | 1013.2 hPa | 0 mm | 2.24 m/s, 102° | 663 W/m² | - |
| 1778143794 | 11.67° C | 67% | 1013 hPa | 0 mm | 1.34 m/s, 300° | 649 W/m² | - |
| 1778143733 | 11.11° C | 66% | 1013 hPa | 0 mm | 2.68 m/s, 46° | 646 W/m² | - |
| 1778143673 | 11.11° C | 67% | 1013.1 hPa | 0 mm | 1.34 m/s, 329° | 644 W/m² | - |
| 1778143613 | 11.11° C | 69% | 1013.1 hPa | 0 mm | 0.45 m/s, 355° | 642 W/m² | - |
| 1778143553 | 11.11° C | 69% | 1013.1 hPa | 0 mm | 1.79 m/s, 308° | 624 W/m² | - |
| 1778143493 | 11.11° C | 68% | 1013.1 hPa | 0 mm | 0.45 m/s, 48° | 615 W/m² | - |
| 1778143433 | 10.56° C | 70% | 1013.1 hPa | 0 mm | 0.89 m/s, 39° | 609 W/m² | - |
| 1778143374 | 10.56° C | 71% | 1013.1 hPa | 0 mm | 0.89 m/s, 355° | 616 W/m² | - |
| 1778143314 | 10.56° C | 71% | 1013.1 hPa | 0 mm | 0.45 m/s, 336° | 607 W/m² | - |
| 1778143254 | 10.56° C | 68% | 1013 hPa | 0 mm | 2.68 m/s, 37° | 581 W/m² | - |
| 1778143194 | 10.56° C | 68% | 1013 hPa | 0 mm | 3.58 m/s, 24° | 591 W/m² | - |
| 1778143133 | 10° C | 70% | 1012.9 hPa | 0 mm | 2.68 m/s, 45° | 569 W/m² | - |
| 1778143074 | 10° C | 70% | 1012.9 hPa | 0 mm | 0.45 m/s, 70° | 583 W/m² | - |
| 1778143013 | 10° C | 70% | 1013 hPa | 0 mm | 2.24 m/s, 2° | 593 W/m² | - |
| 1778142953 | 10° C | 70% | 1012.9 hPa | 0 mm | 1.34 m/s, 42° | 623 W/m² | - |
| 1778142893 | 10° C | 71% | 1013.1 hPa | 0 mm | 1.79 m/s, 320° | 292 W/m² | - |
| 1778142834 | 10° C | 71% | 1012.9 hPa | 0 mm | 2.24 m/s, 32° | 541 W/m² | - |
| 1778142774 | 9.44° C | 73% | 1013.1 hPa | 0 mm | 0.89 m/s, 63° | 557 W/m² | - |
* Rain latest hour (hover to see other rain measurements)
** Current wind speed in m/s (hover to see current wind gust speed)